createdAt,value
2023-05-14T00:01:23.667Z,15.30
2023-05-14T00:06:25.279Z,15.11
2023-05-14T00:11:26.736Z,14.86
2023-05-14T00:16:28.203Z,14.97
2023-05-14T00:21:29.668Z,15.04
2023-05-14T00:26:31.116Z,14.89
2023-05-14T00:31:32.675Z,14.88
2023-05-14T00:36:34.186Z,14.81
2023-05-14T00:41:35.728Z,14.84
2023-05-14T00:46:37.294Z,14.56
2023-05-14T00:51:41.432Z,14.75
2023-05-14T00:56:45.320Z,14.73
2023-05-14T01:01:46.797Z,14.71
2023-05-14T01:07:09.471Z,14.74
2023-05-14T01:12:34.598Z,14.64
2023-05-14T01:17:42.671Z,14.59
2023-05-14T01:22:44.189Z,14.75
2023-05-14T01:28:05.844Z,14.57
2023-05-14T01:33:11.160Z,14.67
2023-05-14T01:38:14.974Z,14.47
2023-05-14T01:43:17.101Z,14.40
2023-05-14T01:48:18.913Z,14.34
2023-05-14T01:53:20.639Z,14.34
2023-05-14T01:58:22.223Z,13.21
2023-05-14T02:03:23.681Z,13.63
2023-05-14T02:08:25.282Z,13.99
2023-05-14T02:13:26.855Z,13.96
2023-05-14T02:18:28.275Z,13.95
2023-05-14T02:23:40.479Z,14.02
2023-05-14T02:28:42.838Z,13.88
2023-05-14T02:33:44.363Z,13.89
2023-05-14T02:38:45.884Z,13.75
2023-05-14T02:43:47.342Z,13.72
2023-05-14T02:48:49.144Z,13.69
2023-05-14T02:53:50.607Z,13.62
2023-05-14T02:58:52.188Z,13.61
2023-05-14T03:03:53.639Z,13.62
2023-05-14T03:08:55.121Z,13.69
2023-05-14T03:13:56.667Z,13.66
2023-05-14T03:18:58.163Z,13.50
2023-05-14T03:23:59.661Z,13.36
2023-05-14T03:29:02.101Z,13.20
2023-05-14T03:34:03.637Z,13.11
2023-05-14T03:39:06.964Z,13.23
2023-05-14T03:44:10.327Z,13.09
2023-05-14T03:49:11.914Z,13.26
2023-05-14T03:54:13.569Z,13.07
2023-05-14T03:59:15.102Z,12.96
2023-05-14T04:04:16.603Z,13.05
2023-05-14T04:09:18.069Z,13.09
2023-05-14T04:14:19.535Z,13.06
2023-05-14T04:19:21.006Z,12.99
2023-05-14T04:24:22.499Z,13.06
2023-05-14T04:29:23.925Z,13.20
2023-05-14T04:34:26.113Z,13.28
2023-05-14T04:39:27.534Z,13.27
2023-05-14T04:44:28.970Z,13.34
2023-05-14T04:49:30.924Z,13.34
2023-05-14T04:54:32.527Z,13.31
2023-05-14T04:59:34.028Z,12.62
2023-05-14T05:04:35.457Z,12.72
2023-05-14T05:09:36.879Z,12.85
2023-05-14T05:14:38.337Z,13.06
2023-05-14T05:19:43.875Z,13.13
2023-05-14T05:24:46.469Z,13.13
2023-05-14T05:29:48.473Z,12.85
2023-05-14T05:34:51.842Z,13.07
2023-05-14T05:39:53.961Z,13.07
2023-05-14T05:44:56.238Z,13.16
2023-05-14T05:49:57.734Z,13.48
2023-05-14T05:54:59.160Z,13.67
2023-05-14T06:00:01.036Z,13.88
2023-05-14T06:05:02.522Z,13.92
2023-05-14T06:10:04.751Z,13.91
2023-05-14T06:15:06.929Z,14.11
2023-05-14T06:20:08.969Z,14.07
2023-05-14T06:25:10.892Z,14.21
2023-05-14T06:30:13.019Z,14.41
2023-05-14T06:35:14.544Z,14.53
2023-05-14T06:40:16.103Z,14.59
2023-05-14T06:45:17.622Z,14.76
2023-05-14T06:50:19.352Z,14.94
2023-05-14T06:55:20.883Z,15.23
2023-05-14T07:00:22.783Z,15.31
2023-05-14T07:05:25.075Z,15.44
2023-05-14T07:10:26.723Z,15.61
2023-05-14T07:15:28.262Z,15.79
2023-05-14T07:20:29.708Z,15.92
2023-05-14T07:25:32.617Z,16.26
2023-05-14T07:30:34.060Z,16.23
2023-05-14T07:35:35.558Z,16.72
2023-05-14T07:40:36.990Z,16.80
2023-05-14T07:45:41.393Z,16.99
2023-05-14T07:50:43.001Z,17.24
2023-05-14T07:55:45.333Z,17.34
2023-05-14T08:00:46.794Z,17.68
2023-05-14T08:06:34.053Z,17.79
2023-05-14T08:11:36.516Z,17.80
2023-05-14T08:16:38.761Z,18.06
2023-05-14T08:21:40.260Z,18.47
2023-05-14T08:26:41.910Z,18.95
2023-05-14T08:31:43.491Z,18.73
2023-05-14T08:36:44.956Z,19.06
2023-05-14T08:41:46.571Z,19.12
2023-05-14T08:46:49.752Z,19.47
2023-05-14T08:51:51.343Z,19.50
2023-05-14T08:56:53.524Z,19.89
2023-05-14T09:01:56.649Z,19.98
2023-05-14T09:07:01.193Z,20.36
2023-05-14T09:12:02.772Z,20.52
2023-05-14T09:17:04.317Z,20.60
2023-05-14T09:22:09.289Z,20.80
2023-05-14T09:27:22.133Z,20.77
2023-05-14T09:32:23.583Z,21.16
2023-05-14T09:37:26.051Z,21.59
2023-05-14T09:42:27.986Z,22.38
2023-05-14T09:47:29.519Z,22.72
2023-05-14T09:52:31.197Z,23.34
2023-05-14T09:57:33.517Z,22.92
2023-05-14T10:02:41.076Z,24.09
2023-05-14T10:07:47.587Z,23.87
2023-05-14T10:12:53.513Z,23.39
2023-05-14T10:17:58.640Z,23.57
2023-05-14T10:23:01.018Z,23.08
2023-05-14T10:28:03.057Z,23.93
2023-05-14T10:33:16.538Z,23.67
2023-05-14T10:38:21.896Z,23.79
2023-05-14T10:43:26.934Z,25.32
2023-05-14T10:48:28.954Z,24.11
2023-05-14T10:53:35.800Z,25.28
2023-05-14T10:58:39.204Z,25.45
2023-05-14T11:03:46.175Z,24.95
2023-05-14T11:08:50.422Z,26.05
2023-05-14T11:13:53.597Z,24.44
2023-05-14T11:19:05.068Z,23.95
2023-05-14T11:24:07.406Z,23.30
2023-05-14T11:29:10.499Z,24.72
2023-05-14T11:34:11.962Z,24.22
2023-05-14T11:39:19.550Z,26.42
2023-05-14T11:44:21.146Z,25.79
2023-05-14T11:49:24.166Z,25.38
2023-05-14T11:54:27.535Z,25.65
2023-05-14T11:59:31.685Z,24.02
2023-05-14T12:04:33.300Z,25.73
2023-05-14T12:09:39.204Z,26.03
2023-05-14T12:14:42.667Z,24.23
2023-05-14T12:19:46.000Z,24.11
2023-05-14T12:24:58.130Z,22.05
2023-05-14T12:30:19.123Z,23.52
2023-05-14T12:35:22.901Z,25.08
2023-05-14T12:40:25.229Z,24.34
2023-05-14T12:45:26.958Z,23.02
2023-05-14T12:50:28.434Z,23.33
2023-05-14T12:55:29.992Z,24.04
2023-05-14T13:00:31.433Z,22.33
2023-05-14T13:05:33.276Z,24.35
2023-05-14T13:10:34.729Z,25.30
2023-05-14T13:15:36.162Z,22.53
2023-05-14T13:20:37.602Z,22.03
2023-05-14T13:25:39.164Z,24.55
2023-05-14T13:30:40.645Z,23.63
2023-05-14T13:35:42.086Z,25.30
2023-05-14T13:40:43.509Z,24.27
2023-05-14T13:45:44.949Z,24.95
2023-05-14T13:50:46.377Z,22.40
2023-05-14T13:55:49.290Z,24.57
2023-05-14T14:00:51.887Z,22.37
2023-05-14T14:05:53.357Z,23.33
2023-05-14T14:10:55.475Z,22.96
2023-05-14T14:15:57.317Z,23.59
2023-05-14T14:20:58.800Z,22.26
2023-05-14T14:26:07.105Z,22.13
2023-05-14T14:36:09.967Z,23.48
2023-05-14T14:41:11.468Z,22.89
2023-05-14T14:46:13.758Z,23.15
2023-05-14T14:51:15.356Z,24.06
2023-05-14T14:56:16.829Z,23.86
2023-05-14T15:01:18.472Z,23.48
2023-05-14T15:06:19.966Z,24.30
2023-05-14T15:11:21.999Z,23.64
2023-05-14T15:16:23.510Z,24.10
2023-05-14T15:21:25.035Z,23.43
2023-05-14T15:26:26.698Z,24.35
2023-05-14T15:31:28.259Z,24.57
2023-05-14T15:36:29.771Z,24.19
2023-05-14T15:41:31.493Z,24.48
2023-05-14T15:46:33.085Z,23.35
2023-05-14T15:51:34.813Z,22.95
2023-05-14T15:56:36.242Z,21.14
2023-05-14T16:01:37.759Z,22.18
2023-05-14T16:06:41.871Z,23.39
2023-05-14T16:11:43.303Z,22.56
2023-05-14T16:16:44.825Z,22.30
2023-05-14T16:21:46.300Z,20.98
2023-05-14T16:26:47.845Z,20.80
2023-05-14T16:31:49.556Z,21.93
2023-05-14T16:36:51.077Z,22.43
2023-05-14T16:41:52.598Z,22.32
2023-05-14T16:46:54.068Z,22.49
2023-05-14T16:51:55.605Z,22.45
2023-05-14T17:03:28.653Z,22.13
2023-05-14T17:08:33.382Z,20.24
2023-05-14T17:13:34.837Z,19.08
2023-05-14T17:18:36.330Z,19.39
2023-05-14T17:23:37.937Z,20.06
2023-05-14T17:28:39.592Z,19.17
2023-05-14T17:33:41.057Z,20.31
2023-05-14T17:38:42.485Z,20.06
2023-05-14T17:50:40.138Z,20.54
2023-05-14T17:55:43.578Z,20.74
2023-05-14T18:00:45.110Z,20.88
2023-05-14T18:05:46.559Z,20.85
2023-05-14T18:10:47.988Z,20.34
2023-05-14T18:15:51.539Z,20.21
2023-05-14T18:20:53.351Z,20.19
2023-05-14T18:25:54.833Z,20.22
2023-05-14T18:30:56.324Z,19.97
2023-05-14T18:35:57.976Z,19.49
2023-05-14T18:40:59.450Z,19.58
2023-05-14T18:46:00.975Z,19.86
2023-05-14T18:51:02.403Z,19.90
2023-05-14T18:56:04.239Z,19.76
2023-05-14T19:01:05.799Z,19.21
2023-05-14T19:06:07.570Z,19.43
2023-05-14T19:11:09.001Z,19.39
2023-05-14T19:16:11.133Z,18.60
2023-05-14T19:21:14.762Z,18.72
2023-05-14T19:26:16.215Z,18.33
2023-05-14T19:31:17.837Z,18.17
2023-05-14T19:36:20.376Z,18.11
2023-05-14T19:41:21.811Z,18.11
2023-05-14T19:46:23.314Z,17.88
2023-05-14T19:51:25.388Z,16.95
2023-05-14T19:56:27.760Z,17.70
2023-05-14T20:01:29.426Z,17.92
2023-05-14T20:06:32.028Z,17.86
2023-05-14T20:11:33.480Z,17.04
2023-05-14T20:16:34.918Z,17.21
2023-05-14T20:21:36.345Z,17.62
2023-05-14T20:26:37.790Z,17.52
2023-05-14T20:31:39.217Z,17.29
2023-05-14T20:36:41.749Z,17.33
2023-05-14T20:41:45.480Z,17.20
2023-05-14T20:46:47.050Z,17.18
2023-05-14T20:51:48.498Z,17.25
2023-05-14T20:56:50.335Z,17.18
2023-05-14T21:01:51.859Z,16.87
2023-05-14T21:06:53.970Z,16.99
2023-05-14T21:11:55.451Z,16.95
2023-05-14T21:16:56.925Z,16.87
2023-05-14T21:21:58.346Z,16.82
2023-05-14T21:26:59.793Z,16.74
2023-05-14T21:32:01.258Z,16.67
2023-05-14T21:37:03.437Z,16.65
2023-05-14T21:42:05.132Z,16.43
2023-05-14T21:47:07.678Z,15.47
2023-05-14T21:52:09.119Z,16.14
2023-05-14T21:57:10.578Z,16.08
2023-05-14T22:02:12.088Z,15.98
2023-05-14T22:07:13.641Z,16.10
2023-05-14T22:12:15.072Z,15.94
2023-05-14T22:17:16.622Z,15.92
2023-05-14T22:22:18.062Z,15.21
2023-05-14T22:27:19.589Z,15.47
2023-05-14T22:32:21.291Z,15.76
2023-05-14T22:37:22.732Z,15.68
2023-05-14T22:42:24.216Z,15.64
2023-05-14T22:47:26.384Z,15.71
2023-05-14T22:52:27.862Z,15.50
2023-05-14T22:57:29.414Z,15.57
2023-05-14T23:02:30.944Z,15.62
2023-05-14T23:07:32.508Z,14.42
2023-05-14T23:12:34.015Z,14.51
2023-05-14T23:17:35.514Z,15.07
2023-05-14T23:22:37.013Z,15.04
2023-05-14T23:27:38.506Z,15.23
2023-05-14T23:32:39.947Z,15.30
2023-05-14T23:37:46.944Z,15.28
2023-05-14T23:42:48.567Z,15.04
2023-05-14T23:47:50.134Z,15.19
2023-05-14T23:52:52.961Z,15.23
2023-05-14T23:57:54.398Z,14.21
